createdAt,value
2023-02-02T00:02:52.981Z,101144.53
2023-02-02T00:05:54.595Z,101149.81
2023-02-02T00:08:58.590Z,101143.63
2023-02-02T00:12:01.132Z,101143.63
2023-02-02T00:15:02.700Z,101145.47
2023-02-02T00:18:04.329Z,101155.19
2023-02-02T00:21:05.880Z,101154.38
2023-02-02T00:24:09.322Z,101154.41
2023-02-02T00:27:10.918Z,101157.13
2023-02-02T00:30:13.175Z,101152.84
2023-02-02T00:33:14.672Z,101159.97
2023-02-02T00:36:17.423Z,101160.00
2023-02-02T00:39:26.131Z,101160.88
2023-02-02T00:42:27.749Z,101166.25
2023-02-02T00:45:30.087Z,101174.19
2023-02-02T00:48:31.996Z,101168.91
2023-02-02T00:51:33.793Z,101172.47
2023-02-02T00:54:35.336Z,101181.31
2023-02-02T00:57:36.966Z,101185.69
2023-02-02T01:00:38.539Z,101183.03
2023-02-02T01:03:40.086Z,101190.09
2023-02-02T01:06:42.192Z,101196.22
2023-02-02T01:09:43.873Z,101209.44
2023-02-02T01:12:45.710Z,101202.41
2023-02-02T01:15:47.260Z,101195.38
2023-02-02T01:18:49.512Z,101198.88
2023-02-02T01:21:51.302Z,101201.44
2023-02-02T01:24:52.864Z,101196.22
2023-02-02T01:27:54.475Z,101191.00
2023-02-02T01:30:56.729Z,101199.84
2023-02-02T01:33:58.312Z,101206.00
2023-02-02T01:37:00.093Z,101210.41
2023-02-02T01:40:01.783Z,101210.41
2023-02-02T01:43:03.322Z,101216.59
2023-02-02T01:46:04.979Z,101215.72
2023-02-02T01:49:09.263Z,101221.00
2023-02-02T01:52:12.551Z,101221.06
2023-02-02T01:55:17.343Z,101237.78
2023-02-02T01:58:33.520Z,101233.41
2023-02-02T02:01:35.033Z,101243.16
2023-02-02T02:04:37.070Z,101246.75
2023-02-02T02:07:43.646Z,101237.09
2023-02-02T02:10:45.567Z,101240.59
2023-02-02T02:14:06.010Z,101245.00
2023-02-02T02:17:19.611Z,101241.56
2023-02-02T02:21:17.098Z,101251.25
2023-02-02T02:24:58.624Z,101261.06
2023-02-02T02:28:21.793Z,101262.91
2023-02-02T02:31:46.589Z,101267.31
2023-02-02T02:35:25.929Z,101275.22
2023-02-02T02:38:38.243Z,101272.72
2023-02-02T02:41:46.647Z,101287.69
2023-02-02T02:44:49.685Z,101281.47
2023-02-02T02:47:52.403Z,101279.69
2023-02-02T02:50:53.945Z,101285.91
2023-02-02T02:53:56.531Z,101284.97
2023-02-02T02:57:35.239Z,101296.47
2023-02-02T03:00:47.465Z,101297.44
2023-02-02T03:04:35.433Z,101293.06
2023-02-02T03:07:47.605Z,101299.38
2023-02-02T03:10:49.355Z,101300.34
2023-02-02T03:13:51.022Z,101304.78
2023-02-02T03:16:53.118Z,101316.31
2023-02-02T03:19:54.680Z,101314.63
2023-02-02T03:22:56.173Z,101315.59
2023-02-02T03:25:57.859Z,101319.09
2023-02-02T03:29:00.593Z,101319.09
2023-02-02T03:32:02.179Z,101316.44
2023-02-02T03:35:04.269Z,101313.91
2023-02-02T03:38:05.868Z,101318.38
2023-02-02T03:41:07.437Z,101326.31
2023-02-02T03:44:08.995Z,101335.19
2023-02-02T03:47:10.513Z,101327.28
2023-02-02T03:50:12.503Z,101339.69
2023-02-02T03:53:14.072Z,101347.66
2023-02-02T03:56:16.770Z,101343.34
2023-02-02T03:59:18.326Z,101343.47
2023-02-02T04:02:19.880Z,101356.75
2023-02-02T04:05:21.481Z,101357.72
2023-02-02T04:08:23.057Z,101358.63
2023-02-02T04:11:24.714Z,101358.69
2023-02-02T04:14:26.394Z,101369.31
2023-02-02T04:17:28.037Z,101372.06
2023-02-02T04:20:29.585Z,101373.03
2023-02-02T04:23:31.573Z,101376.63
2023-02-02T04:26:33.178Z,101382.81
2023-02-02T04:29:34.722Z,101381.88
2023-02-02T04:32:36.336Z,101384.59
2023-02-02T04:35:38.113Z,101375.78
2023-02-02T04:38:39.626Z,101394.25
2023-02-02T04:41:41.198Z,101401.22
2023-02-02T04:44:44.084Z,101389.78
2023-02-02T04:47:45.630Z,101388.84
2023-02-02T04:50:47.131Z,101395.03
2023-02-02T04:53:48.700Z,101397.63
2023-02-02T04:56:50.261Z,101396.75
2023-02-02T04:59:51.855Z,101396.81
2023-02-02T05:02:53.408Z,101400.31
2023-02-02T05:06:04.338Z,101402.03
2023-02-02T05:09:05.887Z,101399.50
2023-02-02T05:12:07.487Z,101403.03
2023-02-02T05:15:09.723Z,101406.56
2023-02-02T05:18:11.285Z,101406.56
2023-02-02T05:21:12.839Z,101407.50
2023-02-02T05:24:14.497Z,101411.91
2023-02-02T05:27:16.048Z,101404.91
2023-02-02T05:30:17.857Z,101415.50
2023-02-02T05:33:19.864Z,101412.94
2023-02-02T05:36:21.604Z,101421.75
2023-02-02T05:39:23.176Z,101427.81
2023-02-02T05:42:24.762Z,101430.44
2023-02-02T05:45:26.636Z,101438.22
2023-02-02T05:48:28.483Z,101439.94
2023-02-02T05:51:33.282Z,101444.34
2023-02-02T05:54:34.834Z,101441.69
2023-02-02T05:57:36.365Z,101442.53
2023-02-02T06:00:38.115Z,101446.91
2023-02-02T06:03:39.811Z,101446.00
2023-02-02T06:06:42.215Z,101452.31
2023-02-02T06:09:43.759Z,101457.94
2023-02-02T06:12:45.363Z,101462.28
2023-02-02T06:15:46.962Z,101454.50
2023-02-02T06:18:48.733Z,101456.44
2023-02-02T06:21:50.457Z,101464.47
2023-02-02T06:24:53.485Z,101465.44
2023-02-02T06:27:57.012Z,101469.13
2023-02-02T06:31:04.885Z,101473.75
2023-02-02T06:34:06.542Z,101480.06
2023-02-02T06:37:08.144Z,101485.50
2023-02-02T06:40:10.378Z,101487.41
2023-02-02T06:43:15.083Z,101497.22
2023-02-02T06:46:17.442Z,101499.09
2023-02-02T06:49:19.101Z,101498.34
2023-02-02T06:52:20.719Z,101495.84
2023-02-02T06:55:22.525Z,101498.69
2023-02-02T06:58:24.428Z,101507.59
2023-02-02T07:01:26.076Z,101501.69
2023-02-02T07:04:27.735Z,101503.69
2023-02-02T07:07:33.935Z,101502.16
2023-02-02T07:11:14.289Z,101505.81
2023-02-02T07:14:00.265Z,101506.97
2023-02-02T07:17:01.862Z,101518.53
2023-02-02T07:20:03.688Z,101516.94
2023-02-02T07:23:05.358Z,101525.78
2023-02-02T07:26:08.995Z,101530.25
2023-02-02T07:29:14.418Z,101530.31
2023-02-02T07:32:15.950Z,101529.56
2023-02-02T07:35:17.766Z,101537.47
2023-02-02T07:38:19.446Z,101535.78
2023-02-02T07:41:21.745Z,101542.88
2023-02-02T07:44:23.557Z,101550.78
2023-02-02T07:47:25.425Z,101554.31
2023-02-02T07:50:29.587Z,101559.63
2023-02-02T07:53:31.633Z,101561.38
2023-02-02T07:56:33.765Z,101574.56
2023-02-02T07:59:35.440Z,101575.38
2023-02-02T08:02:37.088Z,101578.88
2023-02-02T08:05:39.041Z,101577.94
2023-02-02T08:08:40.729Z,101574.34
2023-02-02T08:11:42.298Z,101585.59
2023-02-02T08:14:43.877Z,101587.16
2023-02-02T08:17:46.733Z,101596.03
2023-02-02T08:20:49.426Z,101601.09
2023-02-02T08:23:52.376Z,101609.88
2023-02-02T08:26:53.970Z,101611.59
2023-02-02T08:29:55.570Z,101619.53
2023-02-02T08:32:57.139Z,101621.22
2023-02-02T08:35:58.647Z,101626.41
2023-02-02T08:39:12.972Z,101628.09
2023-02-02T08:42:14.516Z,101631.56
2023-02-02T08:46:01.531Z,101636.75
2023-02-02T08:48:38.561Z,101641.06
2023-02-02T08:51:40.487Z,101643.66
2023-02-02T08:54:42.049Z,101651.56
2023-02-02T08:57:43.606Z,101665.59
2023-02-02T09:00:45.157Z,101656.75
2023-02-02T09:03:47.640Z,101660.22
2023-02-02T09:06:49.191Z,101661.91
2023-02-02T09:09:52.668Z,101673.25
2023-02-02T09:12:54.255Z,101662.63
2023-02-02T09:15:59.985Z,101681.00
2023-02-02T09:19:01.778Z,101684.44
2023-02-02T09:22:03.367Z,101689.63
2023-02-02T09:25:06.677Z,101691.31
2023-02-02T09:28:08.277Z,101696.44
2023-02-02T09:31:10.272Z,101698.94
2023-02-02T09:34:14.284Z,101704.06
2023-02-02T09:37:15.875Z,101710.09
2023-02-02T09:40:21.027Z,101718.72
2023-02-02T09:43:53.419Z,101724.66
2023-02-02T09:47:04.212Z,101731.59
2023-02-02T09:50:29.867Z,101725.13
2023-02-02T09:54:06.575Z,101729.38
2023-02-02T09:57:19.478Z,101733.63
2023-02-02T10:00:33.568Z,101735.69
2023-02-02T10:03:41.419Z,101727.53
2023-02-02T10:06:49.129Z,101726.47
2023-02-02T10:10:04.822Z,101735.94
2023-02-02T10:13:13.899Z,101747.19
2023-02-02T10:16:22.415Z,101753.13
2023-02-02T10:19:29.198Z,101762.56
2023-02-02T10:22:34.302Z,101756.94
2023-02-02T10:25:35.916Z,101758.38
2023-02-02T10:28:43.518Z,101761.56
2023-02-02T10:32:23.271Z,101761.28
2023-02-02T10:35:38.506Z,101763.72
2023-02-02T10:38:57.152Z,101770.56
2023-02-02T10:42:28.211Z,101769.38
2023-02-02T10:45:29.917Z,101785.78
2023-02-02T10:48:36.057Z,101789.81
2023-02-02T10:51:38.301Z,101785.13
2023-02-02T10:54:58.427Z,101784.03
2023-02-02T10:58:12.648Z,101788.13
2023-02-02T11:01:18.057Z,101795.75
2023-02-02T11:04:41.385Z,101797.91
2023-02-02T11:07:43.270Z,101806.44
2023-02-02T11:10:47.158Z,101806.31
2023-02-02T11:14:11.408Z,101808.06
2023-02-02T11:17:33.386Z,101812.72
2023-02-02T11:20:38.881Z,101812.91
2023-02-02T11:23:41.114Z,101812.06
2023-02-02T11:26:54.289Z,101819.41
2023-02-02T11:29:59.249Z,101818.78
2023-02-02T11:33:33.556Z,101821.94
2023-02-02T11:36:35.230Z,101822.63
2023-02-02T11:39:36.751Z,101824.47
2023-02-02T11:42:46.518Z,101820.19
2023-02-02T11:45:54.779Z,101825.59
2023-02-02T11:49:02.023Z,101818.63
2023-02-02T11:52:07.601Z,101826.72
2023-02-02T11:55:17.173Z,101834.78
2023-02-02T11:58:25.096Z,101825.06
2023-02-02T12:01:35.718Z,101827.41
2023-02-02T12:04:37.351Z,101823.44
2023-02-02T12:07:40.521Z,101828.19
2023-02-02T12:10:49.147Z,101824.28
2023-02-02T12:14:28.054Z,101826.03
2023-02-02T12:17:38.856Z,101834.78
2023-02-02T12:20:57.028Z,101828.56
2023-02-02T12:24:38.103Z,101822.69
2023-02-02T12:28:03.506Z,101823.88
2023-02-02T12:31:05.080Z,101823.34
2023-02-02T12:34:35.593Z,101818.22
2023-02-02T12:37:50.265Z,101820.16
2023-02-02T12:41:12.851Z,101821.97
2023-02-02T12:44:54.047Z,101821.94
2023-02-02T12:48:23.095Z,101814.78
2023-02-02T12:51:41.001Z,101817.44
2023-02-02T12:54:57.376Z,101810.47
2023-02-02T12:58:24.792Z,101807.91
2023-02-02T13:01:52.742Z,101804.28
2023-02-02T13:04:57.495Z,101804.88
2023-02-02T13:08:14.737Z,101807.28
2023-02-02T13:11:32.851Z,101791.34
2023-02-02T13:14:43.624Z,101805.59
2023-02-02T13:17:55.621Z,101807.44
2023-02-02T13:21:03.266Z,101807.47
2023-02-02T13:24:07.937Z,101811.06
2023-02-02T13:27:14.791Z,101806.75
2023-02-02T13:30:38.746Z,101804.13
2023-02-02T13:33:44.722Z,101814.88
2023-02-02T13:36:53.924Z,101811.34
2023-02-02T13:40:06.189Z,101821.97
2023-02-02T13:43:45.730Z,101817.63
2023-02-02T13:46:56.538Z,101830.97
2023-02-02T13:50:07.390Z,101828.31
2023-02-02T13:53:19.004Z,101836.91
2023-02-02T13:56:54.279Z,101832.25
2023-02-02T14:00:14.007Z,101826.50
2023-02-02T14:03:32.257Z,101832.41
2023-02-02T14:06:56.767Z,101828.66
2023-02-02T14:09:58.511Z,101833.75
2023-02-02T14:13:32.087Z,101835.34
2023-02-02T14:16:33.621Z,101830.72
2023-02-02T14:19:35.162Z,101827.88
2023-02-02T14:22:42.523Z,101831.22
2023-02-02T14:25:44.022Z,101834.63
2023-02-02T14:28:51.312Z,101840.72
2023-02-02T14:31:54.934Z,101849.50
2023-02-02T14:35:08.719Z,101847.53
2023-02-02T14:38:44.372Z,101836.53
2023-02-02T14:42:31.020Z,101855.88
2023-02-02T14:45:39.260Z,101852.38
2023-02-02T14:48:44.249Z,101857.59
2023-02-02T14:51:53.203Z,101863.78
2023-02-02T14:54:55.933Z,101855.00
2023-02-02T14:58:01.136Z,101863.84
2023-02-02T15:01:08.824Z,101862.97
2023-02-02T15:04:22.329Z,101856.81
2023-02-02T15:07:23.789Z,101853.31
2023-02-02T15:11:22.701Z,101865.72
2023-02-02T15:14:31.005Z,101868.84
2023-02-02T15:17:49.343Z,101874.03
2023-02-02T15:20:56.572Z,101884.69
2023-02-02T15:23:58.145Z,101900.72
2023-02-02T15:27:00.866Z,101899.91
2023-02-02T15:30:07.745Z,101906.22
2023-02-02T15:33:47.274Z,101897.53
2023-02-02T15:36:53.056Z,101908.22
2023-02-02T15:39:58.149Z,101902.97
2023-02-02T15:43:04.435Z,101911.97
2023-02-02T15:46:11.303Z,101909.38
2023-02-02T15:49:33.272Z,101917.38
2023-02-02T15:52:47.046Z,101919.31
2023-02-02T15:55:48.830Z,101916.69
2023-02-02T15:58:52.881Z,101921.19
2023-02-02T16:02:06.867Z,101930.25
2023-02-02T16:05:36.423Z,101935.31
2023-02-02T16:08:40.018Z,101935.50
2023-02-02T16:11:42.572Z,101934.25
2023-02-02T16:14:55.448Z,101937.31
2023-02-02T16:18:00.780Z,101931.78
2023-02-02T16:21:09.821Z,101935.09
2023-02-02T16:24:17.264Z,101937.50
2023-02-02T16:27:23.209Z,101933.56
2023-02-02T16:30:30.349Z,101944.69
2023-02-02T16:33:43.544Z,101952.19
2023-02-02T16:37:04.004Z,101950.00
2023-02-02T16:40:23.346Z,101941.56
2023-02-02T16:43:29.700Z,101951.56
2023-02-02T16:46:49.433Z,101942.22
2023-02-02T16:50:07.695Z,101945.25
2023-02-02T16:53:22.644Z,101933.25
2023-02-02T16:56:36.517Z,101937.94
2023-02-02T16:59:38.564Z,101942.63
2023-02-02T17:02:45.475Z,101944.59
2023-02-02T17:05:47.177Z,101942.97
2023-02-02T17:08:48.816Z,101942.41
2023-02-02T17:12:03.162Z,101953.25
2023-02-02T17:15:17.011Z,101950.72
2023-02-02T17:18:18.553Z,101952.56
2023-02-02T17:21:23.047Z,101953.59
2023-02-02T17:24:24.642Z,101955.41
2023-02-02T17:27:28.693Z,101947.59
2023-02-02T17:30:30.587Z,101958.22
2023-02-02T17:33:34.670Z,101953.03
2023-02-02T17:36:36.249Z,101948.75
2023-02-02T17:39:38.306Z,101954.22
2023-02-02T17:42:40.337Z,101952.53
2023-02-02T17:45:42.933Z,101949.09
2023-02-02T17:48:44.496Z,101932.41
2023-02-02T17:51:46.203Z,101950.09
2023-02-02T17:54:47.821Z,101941.34
2023-02-02T17:57:50.710Z,101939.72
2023-02-02T18:00:55.138Z,101946.84
2023-02-02T18:03:56.966Z,101947.06
2023-02-02T18:06:58.564Z,101946.41
2023-02-02T18:10:00.194Z,101945.69
2023-02-02T18:13:01.888Z,101951.00
2023-02-02T18:16:06.748Z,101933.41
2023-02-02T18:19:08.411Z,101929.97
2023-02-02T18:22:10.079Z,101920.38
2023-02-02T18:25:11.692Z,101917.81
2023-02-02T18:28:18.001Z,101916.22
2023-02-02T18:31:23.866Z,101914.47
2023-02-02T18:34:29.954Z,101915.41
2023-02-02T18:37:31.603Z,101908.38
2023-02-02T18:40:33.185Z,101917.19
2023-02-02T18:43:34.759Z,101901.28
2023-02-02T18:46:36.440Z,101895.00
2023-02-02T18:49:37.949Z,101899.84
2023-02-02T18:52:39.530Z,101892.72
2023-02-02T18:55:41.098Z,101889.31
2023-02-02T18:58:42.894Z,101883.31
2023-02-02T19:01:44.513Z,101880.06
2023-02-02T19:05:05.018Z,101882.09
2023-02-02T19:08:06.713Z,101878.13
2023-02-02T19:11:17.797Z,101870.44
2023-02-02T19:14:26.628Z,101862.72
2023-02-02T19:17:29.625Z,101858.56
2023-02-02T19:20:31.369Z,101851.66
2023-02-02T19:23:37.402Z,101842.09
2023-02-02T19:26:44.447Z,101834.34
2023-02-02T19:29:47.958Z,101830.19
2023-02-02T19:32:49.602Z,101825.06
2023-02-02T19:35:53.059Z,101818.25
2023-02-02T19:39:17.216Z,101813.06
2023-02-02T19:42:18.763Z,101816.75
2023-02-02T19:45:33.200Z,101814.19
2023-02-02T19:48:35.447Z,101814.16
2023-02-02T19:51:44.670Z,101812.47
2023-02-02T19:54:48.972Z,101801.06
2023-02-02T19:57:52.321Z,101802.09
2023-02-02T20:00:57.219Z,101792.53
2023-02-02T20:03:58.825Z,101786.31
2023-02-02T20:07:00.407Z,101783.69
2023-02-02T20:10:20.309Z,101782.94
2023-02-02T20:13:25.702Z,101772.47
2023-02-02T20:16:42.178Z,101775.13
2023-02-02T20:19:46.592Z,101773.31
2023-02-02T20:22:48.234Z,101761.81
2023-02-02T20:25:49.817Z,101759.06
2023-02-02T20:28:53.743Z,101756.38
2023-02-02T20:31:58.576Z,101757.34
2023-02-02T20:35:00.245Z,101756.59
2023-02-02T20:38:01.862Z,101753.06
2023-02-02T20:41:05.804Z,101753.06
2023-02-02T20:44:07.485Z,101749.53
2023-02-02T20:47:09.580Z,101745.00
2023-02-02T20:50:14.409Z,101734.34
2023-02-02T20:53:16.596Z,101742.19
2023-02-02T20:56:18.178Z,101736.06
2023-02-02T20:59:20.262Z,101735.19
2023-02-02T21:02:22.734Z,101736.06
2023-02-02T21:05:24.458Z,101746.66
2023-02-02T21:08:26.236Z,101742.97
2023-02-02T21:11:27.809Z,101737.69
2023-02-02T21:14:29.433Z,101735.91
2023-02-02T21:17:31.014Z,101740.41
2023-02-02T21:20:32.920Z,101727.97
2023-02-02T21:23:34.482Z,101721.75
2023-02-02T21:26:36.061Z,101720.78
2023-02-02T21:29:38.509Z,101710.09
2023-02-02T21:32:40.096Z,101704.75
2023-02-02T21:35:41.646Z,101707.31
2023-02-02T21:38:43.190Z,101698.44
2023-02-02T21:41:44.885Z,101693.91
2023-02-02T21:44:56.672Z,101683.25
2023-02-02T21:48:00.918Z,101684.94
2023-02-02T21:51:23.157Z,101677.78
2023-02-02T21:54:35.402Z,101676.84
2023-02-02T21:57:37.378Z,101673.22
2023-02-02T22:00:38.983Z,101673.09
2023-02-02T22:03:46.457Z,101658.91
2023-02-02T22:06:59.414Z,101655.28
2023-02-02T22:10:00.913Z,101657.78
2023-02-02T22:13:15.845Z,101651.53
2023-02-02T22:16:20.442Z,101647.91
2023-02-02T22:19:29.718Z,101644.38
2023-02-02T22:22:35.427Z,101652.19
2023-02-02T22:25:37.794Z,101657.34
2023-02-02T22:28:39.999Z,101640.50
2023-02-02T22:31:41.680Z,101636.03
2023-02-02T22:34:43.472Z,101625.34
2023-02-02T22:37:45.254Z,101627.91
2023-02-02T22:40:48.253Z,101631.31
2023-02-02T22:43:49.827Z,101609.16
2023-02-02T22:46:51.330Z,101608.22
2023-02-02T22:49:53.114Z,101593.16
2023-02-02T22:52:55.047Z,101587.88
2023-02-02T22:55:56.783Z,101593.97
2023-02-02T22:58:58.312Z,101598.31
2023-02-02T23:01:59.923Z,101596.50
2023-02-02T23:05:01.464Z,101607.09
2023-02-02T23:08:03.025Z,101594.66
2023-02-02T23:11:04.773Z,101594.59
2023-02-02T23:14:06.343Z,101583.88
2023-02-02T23:17:08.307Z,101576.06
2023-02-02T23:20:13.680Z,101585.75
2023-02-02T23:23:15.193Z,101597.22
2023-02-02T23:26:16.933Z,101595.53
2023-02-02T23:29:18.483Z,101598.22
2023-02-02T23:32:20.066Z,101595.72
2023-02-02T23:35:21.634Z,101591.41
2023-02-02T23:38:23.196Z,101587.91
2023-02-02T23:41:24.759Z,101585.25
2023-02-02T23:44:26.302Z,101581.75
2023-02-02T23:47:28.030Z,101595.84
2023-02-02T23:50:29.819Z,101594.09
2023-02-02T23:53:31.393Z,101597.69
2023-02-02T23:56:33.343Z,101592.31
2023-02-02T23:59:34.896Z,101595.88
